Time;durP1;ratioP1;P1;durP2;ratioP2;P2;SDS_P1;SDS_P2;PMS_P1;PMS_P2;Temp;Humidity;BMP_temperature;BMP_pressure;BME280_temperature;BME280_humidity;BME280_pressure;Samples;Min_cycle;Max_cycle;Signal;HPM_P1;HPM_P2
2023/01/05 00:00:51;;;;;;;;;;;;;;;11.36;88.52;101703.31;5072019;28;19923;-45
2023/01/05 00:03:16;;;;;;;;;;;;;;;11.36;88.24;101690.44;5077003;28;19912;-46
2023/01/05 00:05:41;;;;;;;;;;;;;;;11.36;88.50;101699.06;5081596;28;19930;-46
2023/01/05 00:08:07;;;;;;;;;;;;;;;11.33;87.68;101705.78;5066107;28;20028;-47
2023/01/05 00:24:29;;;;;;;;;;;;;;;11.27;88.35;101686.69;5056963;28;19916;-47
2023/01/05 00:26:54;;;;;;;;;;;;;;;11.27;88.38;101691.84;5072448;28;19916;-47
2023/01/05 00:29:19;;;;;;;;;;;;;;;11.26;88.43;101694.34;5070949;28;19920;-46
2023/01/05 00:31:44;;;;;;;;;;;;;;;11.26;88.47;101690.09;5073083;28;19916;-43
2023/01/05 00:34:10;;;;;;;;;;;;;;;11.25;88.28;101697.75;5077042;28;19928;-44
2023/01/05 00:36:35;;;;;;;;;;;;;;;11.21;88.33;101699.31;5076078;28;19916;-47
2023/01/05 00:39:01;;;;;;;;;;;;;;;11.22;88.42;101702.78;5076702;28;20369;-44
2023/01/05 00:41:26;;;;;;;;;;;;;;;11.22;88.47;101701.09;5076773;28;19920;-45
2023/01/05 00:43:51;;;;;;;;;;;;;;;11.22;88.58;101701.09;5078449;28;20356;-45
2023/01/05 00:46:16;;;;;;;;;;;;;;;11.23;88.61;101712.28;5069633;28;19978;-48
2023/01/05 00:48:42;;;;;;;;;;;;;;;11.22;88.33;101710.50;5072412;28;20550;-47
2023/01/05 00:51:07;;;;;;;;;;;;;;;11.23;88.17;101720.00;5072952;28;20068;-45
2023/01/05 00:53:32;;;;;;;;;;;;;;;11.22;88.47;101719.13;5064751;28;20003;-45
2023/01/05 00:55:57;;;;;;;;;;;;;;;11.24;88.47;101721.75;5075983;28;19962;-47
2023/01/05 00:58:23;;;;;;;;;;;;;;;11.24;88.26;101707.19;5065379;28;19919;-45
2023/01/05 01:00:49;;;;;;;;;;;;;;;11.20;87.91;101710.44;5075606;28;19923;-47
2023/01/05 01:03:14;;;;;;;;;;;;;;;11.18;88.29;101717.25;5073066;28;19927;-46
2023/01/05 01:05:39;;;;;;;;;;;;;;;11.18;88.37;101714.66;5078105;28;19920;-46
2023/01/05 01:08:04;;;;;;;;;;;;;;;11.16;87.67;101713.75;5073426;28;19952;-45
2023/01/05 01:10:30;;;;;;;;;;;;;;;11.16;88.21;101721.47;5073044;28;19993;-46
2023/01/05 01:12:55;;;;;;;;;;;;;;;11.13;87.96;101731.63;5067514;28;20273;-44
2023/01/05 01:15:20;;;;;;;;;;;;;;;11.11;88.35;101715.25;5075430;28;19916;-46
2023/01/05 01:17:45;;;;;;;;;;;;;;;11.11;88.08;101716.94;5064825;28;19924;-47
2023/01/05 01:20:11;;;;;;;;;;;;;;;11.10;88.03;101712.59;5066169;28;20494;-47
2023/01/05 01:22:36;;;;;;;;;;;;;;;11.12;88.32;101714.44;5063498;28;19916;-45
2023/01/05 01:25:02;;;;;;;;;;;;;;;11.10;87.84;101728.03;5063017;28;19920;-44
2023/01/05 01:27:28;;;;;;;;;;;;;;;11.09;88.07;101734.88;5068348;28;19916;-46
2023/01/05 01:29:53;;;;;;;;;;;;;;;11.06;87.78;101715.88;5068529;28;20095;-46
2023/01/05 01:32:19;;;;;;;;;;;;;;;11.04;88.19;101736.38;5073969;28;20351;-44
2023/01/05 01:34:44;;;;;;;;;;;;;;;11.05;88.44;101745.03;5066305;28;20381;-45
2023/01/05 01:37:10;;;;;;;;;;;;;;;11.01;88.03;101750.03;5066797;28;19928;-45
2023/01/05 01:39:35;;;;;;;;;;;;;;;10.97;88.16;101744.69;5073838;28;19916;-45
2023/01/05 01:42:00;;;;;;;;;;;;;;;10.95;88.32;101754.94;5063992;28;19916;-44
2023/01/05 01:44:44;;;;;;;;;;;;;;;10.95;88.32;101754.94;5076384;28;19930;-47
2023/01/05 01:47:13;;;;;;;;;;;;;;;10.95;88.46;101757.50;5066283;28;20008;-45
2023/01/05 01:49:38;;;;;;;;;;;;;;;10.94;88.16;101765.16;5071144;28;20018;-48
2023/01/05 01:52:03;;;;;;;;;;;;;;;10.93;88.33;101766.00;5067687;28;20343;-45
2023/01/05 01:54:29;;;;;;;;;;;;;;;10.91;88.66;101765.03;5063976;28;19921;-46
2023/01/05 01:56:55;;;;;;;;;;;;;;;10.91;88.80;101767.59;5068638;28;19923;-47
2023/01/05 01:59:20;;;;;;;;;;;;;;;10.89;88.74;101769.25;5069263;28;19923;-47
2023/01/05 02:01:47;;;;;;;;;;;;;;;10.88;88.88;101765.78;5070058;28;19966;-47
2023/01/05 02:04:13;;;;;;;;;;;;;;;10.91;88.93;101770.16;5072280;28;19923;-44
2023/01/05 02:06:38;;;;;;;;;;;;;;;10.91;89.04;101776.19;5073254;28;19920;-48
2023/01/05 02:09:04;;;;;;;;;;;;;;;10.91;89.12;101778.75;5071566;28;20381;-47
2023/01/05 02:11:53;;;;;;;;;;;;;;;10.92;89.10;101780.56;5076474;28;19916;-45
2023/01/05 02:14:59;;;;;;;;;;;;;;;10.91;89.33;101777.88;5064136;28;19912;-48
2023/01/05 02:17:24;;;;;;;;;;;;;;;10.91;89.26;101777.88;5046912;28;20654;-47
2023/01/05 02:19:55;;;;;;;;;;;;;;;10.92;89.47;101780.56;5050658;28;20409;-46
2023/01/05 02:22:39;;;;;;;;;;;;;;;10.92;89.47;101775.41;5060409;28;19916;-45
2023/01/05 02:25:10;;;;;;;;;;;;;;;10.92;89.61;101777.97;5069618;28;20339;-46
2023/01/05 02:27:46;;;;;;;;;;;;;;;10.93;89.63;101769.44;5062446;28;19958;-44
2023/01/05 02:30:24;;;;;;;;;;;;;;;10.95;89.55;101769.50;5060046;28;19919;-44
2023/01/05 02:33:09;;;;;;;;;;;;;;;10.96;89.51;101779.84;5065151;28;19916;-44
2023/01/05 02:35:38;;;;;;;;;;;;;;;10.97;89.49;101775.56;5070924;28;19946;-46
2023/01/05 02:38:18;;;;;;;;;;;;;;;10.97;89.75;101770.41;5072980;28;20379;-46
2023/01/05 02:40:46;;;;;;;;;;;;;;;10.97;89.64;101767.84;5070228;28;19943;-44
2023/01/05 02:43:12;;;;;;;;;;;;;;;10.96;89.81;101778.97;5073064;28;20280;-46
2023/01/05 02:45:38;;;;;;;;;;;;;;;10.96;89.78;101776.38;5075098;28;20433;-44
2023/01/05 02:48:03;;;;;;;;;;;;;;;10.96;89.88;101779.84;5072748;28;20002;-45
2023/01/05 02:50:37;;;;;;;;;;;;;;;10.96;89.78;101786.69;5076889;28;19951;-44
2023/01/05 02:53:05;;;;;;;;;;;;;;;10.95;89.89;101777.22;5073135;28;19908;-47
2023/01/05 02:55:50;;;;;;;;;;;;;;;10.96;89.90;101789.25;5066003;28;19912;-46
2023/01/05 02:58:18;;;;;;;;;;;;;;;10.96;90.05;101787.56;5071074;28;20284;-42
2023/01/05 03:00:45;;;;;;;;;;;;;;;10.97;90.03;101784.16;5068244;28;19927;-46
2023/01/05 03:03:20;;;;;;;;;;;;;;;10.97;90.08;101775.56;5074176;28;20585;-45
2023/01/05 03:06:00;;;;;;;;;;;;;;;10.98;90.15;101780.81;5071526;28;19916;-48
2023/01/05 03:08:26;;;;;;;;;;;;;;;11.00;90.01;101783.44;5077593;28;19908;-48
2023/01/05 03:13:40;;;;;;;;;;;;;;;11.00;90.08;101784.31;5073634;28;19977;-45
2023/01/05 03:16:07;;;;;;;;;;;;;;;11.02;90.17;101797.22;5074112;28;19920;-44
2023/01/05 03:19:34;;;;;;;;;;;;;;;11.03;89.80;101786.09;5072546;28;19920;-46
2023/01/05 03:21:19;;;;;;;;;;;;;;;11.03;89.80;101793.84;5071513;28;20034;-43
2023/01/05 03:37:38;;;;;;;;;;;;;;;11.05;90.03;101804.22;5076615;28;19919;-46
2023/01/05 03:40:06;;;;;;;;;;;;;;;11.06;89.96;101796.53;5070030;28;19919;-46
2023/01/05 03:42:31;;;;;;;;;;;;;;;11.07;89.68;101800.00;5081236;28;20000;-47
2023/01/05 03:44:57;;;;;;;;;;;;;;;11.05;89.79;101792.22;5072971;28;19951;-46
2023/01/05 03:47:22;;;;;;;;;;;;;;;11.07;89.72;101800.00;5080897;28;19969;-47
2023/01/05 03:49:48;;;;;;;;;;;;;;;11.06;89.62;101795.66;5074838;28;19924;-44
2023/01/05 03:52:13;;;;;;;;;;;;;;;11.04;89.47;101805.88;5081876;28;19923;-47
2023/01/05 03:54:38;;;;;;;;;;;;;;;11.05;89.56;101799.94;5078880;28;19931;-45
2023/01/05 03:57:03;;;;;;;;;;;;;;;11.03;89.66;101809.28;5060047;28;19924;-45
2023/01/05 03:59:29;;;;;;;;;;;;;;;11.04;89.81;101811.03;5061467;28;20048;-45
2023/01/05 04:01:54;;;;;;;;;;;;;;;11.05;89.90;101805.09;5058223;28;20030;-47
2023/01/05 04:04:19;;;;;;;;;;;;;;;11.06;89.90;101795.66;5061724;28;19964;-45
2023/01/05 04:06:44;;;;;;;;;;;;;;;11.08;89.91;101800.06;5065578;28;19959;-46
2023/01/05 04:09:10;;;;;;;;;;;;;;;11.09;89.91;101800.94;5062681;28;20015;-44
2023/01/05 04:11:35;;;;;;;;;;;;;;;11.09;89.70;101803.50;5059262;28;20296;-46
2023/01/05 04:14:00;;;;;;;;;;;;;;;11.09;89.80;101794.09;5061881;28;19970;-45
2023/01/05 04:16:27;;;;;;;;;;;;;;;11.10;90.00;101805.25;5062738;28;20421;-47
2023/01/05 04:18:52;;;;;;;;;;;;;;;11.10;89.69;101808.75;5063664;28;19917;-45
2023/01/05 04:21:18;;;;;;;;;;;;;;;11.10;89.84;101795.88;5059433;28;19934;-44
2023/01/05 04:23:43;;;;;;;;;;;;;;;11.09;89.86;101795.78;5062195;28;20014;-45
2023/01/05 04:26:08;;;;;;;;;;;;;;;11.08;90.04;101796.59;5064828;28;19964;-44
2023/01/05 04:28:33;;;;;;;;;;;;;;;11.07;90.13;101800.88;5052622;28;19962;-47
2023/01/05 04:30:59;;;;;;;;;;;;;;;11.08;90.20;101807.78;5061608;28;19927;-48
2023/01/05 04:33:24;;;;;;;;;;;;;;;11.06;90.22;101801.69;5061372;28;19928;-46
2023/01/05 04:35:50;;;;;;;;;;;;;;;11.07;90.28;101806.03;5063721;28;20410;-47
2023/01/05 04:38:15;;;;;;;;;;;;;;;11.08;90.26;101804.31;5058083;28;20003;-44
2023/01/05 04:40:41;;;;;;;;;;;;;;;11.05;90.46;101810.25;5064039;28;19920;-47
2023/01/05 04:43:06;;;;;;;;;;;;;;;11.06;90.52;101812.00;5062547;28;20015;-45
2023/01/05 04:45:32;;;;;;;;;;;;;;;11.08;90.65;101799.19;5062637;28;20014;-47
2023/01/05 04:47:57;;;;;;;;;;;;;;;11.06;90.52;101798.25;5061124;28;19947;-45
2023/01/05 04:50:22;;;;;;;;;;;;;;;11.05;90.49;101801.66;5060957;28;20525;-45
2023/01/05 04:52:47;;;;;;;;;;;;;;;11.06;90.76;101801.69;5063030;28;20370;-43
2023/01/05 04:55:13;;;;;;;;;;;;;;;11.05;90.69;101799.94;5060982;28;19920;-46
2023/01/05 04:57:38;;;;;;;;;;;;;;;11.06;90.60;101806.84;5057962;28;20014;-45
2023/01/05 05:00:03;;;;;;;;;;;;;;;11.06;90.76;101804.28;5069827;28;19917;-44
2023/01/05 05:02:29;;;;;;;;;;;;;;;11.06;90.68;101803.41;5069500;28;20341;-45
2023/01/05 05:04:54;;;;;;;;;;;;;;;11.07;90.63;101818.00;5067200;28;20043;-45
2023/01/05 05:07:19;;;;;;;;;;;;;;;11.09;90.77;101814.66;5073778;28;20023;-45
2023/01/05 05:09:45;;;;;;;;;;;;;;;11.10;90.83;101824.19;5066522;28;19919;-44
2023/01/05 05:12:10;;;;;;;;;;;;;;;11.09;90.88;101819.81;5069695;28;19988;-48
2023/01/05 05:14:35;;;;;;;;;;;;;;;11.10;90.69;101821.59;5069553;28;20365;-46
2023/01/05 05:17:00;;;;;;;;;;;;;;;11.10;90.55;101831.91;5072698;28;19916;-45
2023/01/05 05:19:25;;;;;;;;;;;;;;;11.10;90.59;101842.19;5067744;28;20450;-47
2023/01/05 05:21:51;;;;;;;;;;;;;;;11.07;90.68;101836.91;5067111;28;20292;-45
2023/01/05 05:24:16;;;;;;;;;;;;;;;11.07;90.79;101847.19;5070107;28;20293;-47
2023/01/05 05:26:41;;;;;;;;;;;;;;;11.04;90.76;101841.91;5066438;28;19959;-47
2023/01/05 05:29:07;;;;;;;;;;;;;;;11.05;90.62;101841.13;5070404;28;20422;-46
2023/01/05 05:31:32;;;;;;;;;;;;;;;11.07;90.66;101839.47;5070779;28;20297;-44
2023/01/05 05:33:57;;;;;;;;;;;;;;;11.08;90.54;101846.38;5073559;28;19927;-48
2023/01/05 05:36:22;;;;;;;;;;;;;;;11.09;90.37;101853.28;5071489;28;19916;-45
2023/01/05 05:38:48;;;;;;;;;;;;;;;11.10;90.40;101849.91;5064191;28;20366;-47
2023/01/05 05:41:13;;;;;;;;;;;;;;;11.10;90.53;101852.50;5070040;28;19923;-47
2023/01/05 05:43:38;;;;;;;;;;;;;;;11.10;90.31;101860.22;5067246;28;19916;-47
2023/01/05 05:46:03;;;;;;;;;;;;;;;11.11;90.37;101859.41;5062925;28;19921;-47
2023/01/05 05:48:29;;;;;;;;;;;;;;;11.12;90.70;101863.72;5068246;28;19919;-43
2023/01/05 05:50:54;;;;;;;;;;;;;;;11.13;90.63;101873.19;5068054;28;19916;-44
2023/01/05 05:53:19;;;;;;;;;;;;;;;11.14;90.56;101863.78;5065193;28;19940;-45
2023/01/05 05:55:48;;;;;;;;;;;;;;;11.15;90.55;101871.56;5068253;28;19938;-46
2023/01/05 05:58:14;;;;;;;;;;;;;;;11.15;90.55;101875.81;5066949;28;19912;-43
2023/01/05 06:00:39;;;;;;;;;;;;;;;11.14;90.58;101880.09;5065663;28;20383;-45
2023/01/05 06:03:04;;;;;;;;;;;;;;;11.15;90.72;101883.56;5073706;28;19966;-47
2023/01/05 06:05:29;;;;;;;;;;;;;;;11.15;90.60;101889.56;5068552;28;20447;-45
2023/01/05 06:07:55;;;;;;;;;;;;;;;11.15;90.53;101889.56;5067546;28;19927;-44
2023/01/05 06:10:20;;;;;;;;;;;;;;;11.14;90.42;101886.94;5078728;28;19916;-46
2023/01/05 06:12:45;;;;;;;;;;;;;;;11.15;90.67;101886.13;5078275;28;19920;-47
2023/01/05 06:15:11;;;;;;;;;;;;;;;11.14;90.59;101885.25;5079581;28;19920;-44
2023/01/05 06:17:36;;;;;;;;;;;;;;;11.14;90.71;101897.25;5070772;28;19921;-45
2023/01/05 06:20:01;;;;;;;;;;;;;;;11.12;92.17;101886.88;5075828;28;20524;-47
2023/01/05 06:22:26;;;;;;;;;;;;;;;11.10;92.07;101897.91;5069239;28;19924;-47
2023/01/05 06:24:52;;;;;;;;;;;;;;;11.11;92.27;101908.31;5076072;28;19916;-46
2023/01/05 06:27:17;;;;;;;;;;;;;;;11.11;92.79;101910.88;5072468;28;19916;-44
2023/01/05 06:29:42;;;;;;;;;;;;;;;11.08;92.61;101921.03;5071264;28;20332;-47
2023/01/05 06:32:07;;;;;;;;;;;;;;;11.06;92.56;101916.63;5071766;28;20011;-46
2023/01/05 06:34:33;;;;;;;;;;;;;;;11.04;92.48;101919.13;5073302;28;20285;-46
2023/01/05 06:36:58;;;;;;;;;;;;;;;11.02;92.40;101913.91;5075802;28;19970;-47
2023/01/05 06:39:23;;;;;;;;;;;;;;;11.04;92.52;101919.13;5074161;28;20374;-44
2023/01/05 06:41:48;;;;;;;;;;;;;;;11.04;92.31;101923.41;5071042;28;20115;-47
2023/01/05 06:44:14;;;;;;;;;;;;;;;11.05;92.25;101925.19;5072679;28;19923;-48
2023/01/05 06:46:39;;;;;;;;;;;;;;;11.05;92.39;101941.50;5075833;28;20012;-45
2023/01/05 06:49:05;;;;;;;;;;;;;;;11.06;92.45;101942.38;5070707;28;20838;-46
2023/01/05 06:51:30;;;;;;;;;;;;;;;11.05;92.22;101941.50;5072061;28;20330;-47
2023/01/05 06:53:55;;;;;;;;;;;;;;;11.07;92.14;101941.56;5076319;28;19916;-47
2023/01/05 06:56:20;;;;;;;;;;;;;;;11.08;92.17;101961.34;5080142;28;19974;-47
2023/01/05 06:58:46;;;;;;;;;;;;;;;11.06;91.77;101950.09;5071414;28;19958;-44
2023/01/05 07:01:11;;;;;;;;;;;;;;;11.05;91.93;101949.22;5067561;28;19927;-47
2023/01/05 07:03:36;;;;;;;;;;;;;;;11.04;91.92;101951.72;5066890;28;19920;-45
2023/01/05 07:06:03;;;;;;;;;;;;;;;11.04;92.02;101950.00;5069868;28;19920;-45
2023/01/05 07:08:28;;;;;;;;;;;;;;;11.05;91.56;101943.19;5072576;28;20058;-47
2023/01/05 07:10:53;;;;;;;;;;;;;;;11.06;91.68;101956.13;5072897;28;19998;-46
2023/01/05 07:13:18;;;;;;;;;;;;;;;11.04;91.54;101949.13;5072055;28;20381;-46
2023/01/05 07:15:44;;;;;;;;;;;;;;;11.02;91.81;101946.50;5068733;28;20322;-46
2023/01/05 07:18:09;;;;;;;;;;;;;;;11.02;91.78;101959.38;5072410;28;19978;-45
2023/01/05 07:20:34;;;;;;;;;;;;;;;11.03;91.72;101961.13;5075603;28;20340;-45
2023/01/05 07:22:59;;;;;;;;;;;;;;;11.04;91.60;101959.44;5069687;28;20011;-46
2023/01/05 07:25:30;;;;;;;;;;;;;;;11.04;91.63;101968.03;5071465;28;19920;-49
2023/01/05 07:27:55;;;;;;;;;;;;;;;11.02;91.42;101967.97;5073099;28;20304;-48
2023/01/05 07:30:20;;;;;;;;;;;;;;;11.02;91.57;101967.09;5070904;28;19916;-45
2023/01/05 07:32:45;;;;;;;;;;;;;;;11.01;91.58;101975.63;5079463;28;19916;-43
2023/01/05 07:35:11;;;;;;;;;;;;;;;11.02;91.68;101972.25;5069135;28;20447;-47
2023/01/05 07:37:36;;;;;;;;;;;;;;;11.02;91.79;101983.41;5080136;28;19923;-44
2023/01/05 07:40:01;;;;;;;;;;;;;;;11.03;91.62;101979.13;5076751;28;19913;-45
2023/01/05 07:42:26;;;;;;;;;;;;;;;11.02;91.64;101980.84;5077826;28;19919;-45
2023/01/05 07:44:52;;;;;;;;;;;;;;;11.01;91.75;101976.50;5072014;28;20281;-46
2023/01/05 07:47:17;;;;;;;;;;;;;;;11.01;91.67;101984.22;5062282;28;20015;-47
2023/01/05 07:49:43;;;;;;;;;;;;;;;11.02;91.75;101982.53;5069363;28;19958;-47
2023/01/05 07:52:08;;;;;;;;;;;;;;;11.02;91.74;101991.13;5066912;28;20296;-47
2023/01/05 07:54:33;;;;;;;;;;;;;;;11.04;91.75;101980.91;5081113;28;19943;-46
2023/01/05 07:56:58;;;;;;;;;;;;;;;11.04;91.77;101985.16;5070489;28;19916;-46
2023/01/05 07:59:24;;;;;;;;;;;;;;;11.03;91.78;101992.00;5068273;28;19923;-46
2023/01/05 08:01:49;;;;;;;;;;;;;;;11.02;91.83;101990.25;5068215;28;20396;-47
2023/01/05 08:04:14;;;;;;;;;;;;;;;11.02;91.75;101992.81;5073734;28;20224;-45
2023/01/05 08:06:39;;;;;;;;;;;;;;;11.04;91.94;101995.47;5070580;28;20402;-43
2023/01/05 08:11:49;;;;;;;;;;;;;;;11.04;91.77;102001.50;5067310;28;19959;-44
2023/01/05 08:14:14;;;;;;;;;;;;;;;11.07;91.79;102013.63;5064561;28;19956;-47
2023/01/05 08:16:39;;;;;;;;;;;;;;;11.04;91.59;102003.19;5073692;28;19924;-46
2023/01/05 08:19:04;;;;;;;;;;;;;;;11.01;91.37;102014.22;5069437;28;19916;-48
2023/01/05 08:21:30;;;;;;;;;;;;;;;11.00;91.90;102012.47;5066727;28;20431;-48
2023/01/05 08:23:58;;;;;;;;;;;;;;;11.01;91.87;102014.22;5065554;28;19936;-45
2023/01/05 08:26:23;;;;;;;;;;;;;;;11.02;91.62;102009.16;5062746;28;20314;-45
2023/01/05 08:28:49;;;;;;;;;;;;;;;11.02;91.82;102016.88;5075396;28;19969;-44
2023/01/05 08:31:25;;;;;;;;;;;;;;;11.04;91.61;102014.34;5059760;28;19919;-44
2023/01/05 08:33:50;;;;;;;;;;;;;;;11.03;91.48;102017.75;5069405;28;19920;-45
2023/01/05 08:36:18;;;;;;;;;;;;;;;11.01;91.52;102017.69;5071228;28;19920;-44
2023/01/05 08:38:49;;;;;;;;;;;;;;;11.01;91.54;102027.97;5072743;28;20449;-47
2023/01/05 08:41:18;;;;;;;;;;;;;;;11.02;91.70;102032.31;5070478;28;20415;-42
2023/01/05 08:43:48;;;;;;;;;;;;;;;11.02;91.77;102040.03;5065373;28;19948;-51
2023/01/05 08:46:13;;;;;;;;;;;;;;;11.05;91.80;102044.47;5067641;28;20405;-46
2023/01/05 08:48:38;;;;;;;;;;;;;;;11.05;91.59;102044.47;5067724;28;19912;-44
2023/01/05 08:51:06;;;;;;;;;;;;;;;11.04;91.77;102052.97;5073618;28;19951;-46
2023/01/05 08:53:31;;;;;;;;;;;;;;;11.03;91.80;102046.06;5064637;28;20075;-46
2023/01/05 08:55:56;;;;;;;;;;;;;;;11.05;91.79;102056.44;5066123;28;19940;-48
2023/01/05 08:58:22;;;;;;;;;;;;;;;11.08;91.83;102057.44;5068476;28;19961;-46
2023/01/05 09:00:47;;;;;;;;;;;;;;;11.08;91.56;102056.56;5062523;28;20707;-47
2023/01/05 09:03:12;;;;;;;;;;;;;;;11.10;91.84;102063.56;5067660;28;19916;-42
2023/01/05 09:05:37;;;;;;;;;;;;;;;11.08;91.70;102065.16;5066138;28;19951;-43
2023/01/05 09:08:03;;;;;;;;;;;;;;;11.09;91.67;102072.06;5078643;28;19924;-43
2023/01/05 09:10:29;;;;;;;;;;;;;;;11.12;91.79;102069.66;5066360;28;19924;-42
2023/01/05 09:12:54;;;;;;;;;;;;;;;11.16;91.79;102075.81;5066196;28;19923;-45
2023/01/05 09:15:19;;;;;;;;;;;;;;;11.18;91.63;102077.66;5065956;28;20363;-45
2023/01/05 09:17:44;;;;;;;;;;;;;;;11.21;91.63;102075.19;5072058;28;20414;-44
2023/01/05 09:20:10;;;;;;;;;;;;;;;11.22;91.31;102077.00;5071526;28;19927;-43
2023/01/05 09:22:35;;;;;;;;;;;;;;;11.26;91.32;102083.13;5073857;28;19935;-43
2023/01/05 09:25:01;;;;;;;;;;;;;;;11.29;91.22;102085.88;5071907;28;20316;-46
2023/01/05 09:27:26;;;;;;;;;;;;;;;11.33;90.56;102092.00;5069948;28;19920;-44
2023/01/05 09:29:51;;;;;;;;;;;;;;;11.34;90.75;102088.63;5072140;28;19928;-44
2023/01/05 09:32:17;;;;;;;;;;;;;;;11.36;90.72;102093.03;5070445;28;19916;-43
2023/01/05 09:34:42;;;;;;;;;;;;;;;11.36;90.33;102094.75;5067123;28;19927;-45
2023/01/05 09:37:08;;;;;;;;;;;;;;;11.37;90.58;102093.91;5068332;28;19916;-47
2023/01/05 09:39:33;;;;;;;;;;;;;;;11.41;90.64;102093.25;5078872;28;19916;-46
2023/01/05 09:42:01;;;;;;;;;;;;;;;11.45;90.38;102100.28;5069871;28;19918;-45
2023/01/05 09:44:26;;;;;;;;;;;;;;;11.45;90.09;102103.72;5064061;28;20404;-46
2023/01/05 09:46:54;;;;;;;;;;;;;;;11.46;89.83;102104.63;5068465;28;19967;-48
2023/01/05 09:49:20;;;;;;;;;;;;;;;11.46;89.99;102110.66;5064768;28;20463;-45
2023/01/05 09:51:47;;;;;;;;;;;;;;;11.46;89.68;102109.75;5068496;28;19931;-43
2023/01/05 09:54:15;;;;;;;;;;;;;;;11.47;90.06;102120.16;5065430;28;19951;-43
2023/01/05 09:56:42;;;;;;;;;;;;;;;11.45;89.63;102115.75;5065423;28;19916;-43
2023/01/05 09:59:25;;;;;;;;;;;;;;;11.45;89.67;102118.31;5065894;28;20324;-45
2023/01/05 10:01:51;;;;;;;;;;;;;;;11.44;89.79;102117.44;5068197;28;20314;-44
2023/01/05 10:04:21;;;;;;;;;;;;;;;11.45;89.84;102126.91;5064379;28;19921;-44
2023/01/05 10:06:49;;;;;;;;;;;;;;;11.44;89.72;102125.16;5061745;28;19916;-49
2023/01/05 10:09:17;;;;;;;;;;;;;;;11.43;90.09;102130.25;5068460;28;20434;-43
2023/01/05 10:15:12;;;;;;;;;;;;;;;11.43;89.95;102125.09;5065844;28;20311;-45
2023/01/05 10:17:38;;;;;;;;;;;;;;;11.44;90.08;102129.44;5066766;28;19919;-46
2023/01/05 10:20:13;;;;;;;;;;;;;;;11.45;90.23;102133.75;5067835;28;19912;-47
2023/01/05 10:22:44;;;;;;;;;;;;;;;11.46;90.25;102133.81;5067036;28;20007;-45
2023/01/05 10:25:20;;;;;;;;;;;;;;;11.48;89.96;102144.22;5071667;28;20367;-43
2023/01/05 10:27:48;;;;;;;;;;;;;;;11.46;90.22;102133.81;5063116;28;19916;-43
2023/01/05 10:30:17;;;;;;;;;;;;;;;11.46;90.14;102138.97;5061417;28;19912;-44
2023/01/05 10:32:51;;;;;;;;;;;;;;;11.49;90.47;102143.41;5068476;28;19916;-43
2023/01/05 10:35:28;;;;;;;;;;;;;;;11.51;90.46;102142.66;5066366;28;20399;-45
2023/01/05 10:38:05;;;;;;;;;;;;;;;11.53;90.29;102142.72;5056537;28;19913;-44
2023/01/05 10:40:50;;;;;;;;;;;;;;;11.58;90.71;102138.63;5069981;28;20115;-43
2023/01/05 10:43:15;;;;;;;;;;;;;;;11.62;90.45;102134.53;5073754;28;19913;-47
2023/01/05 10:45:40;;;;;;;;;;;;;;;11.65;90.10;102140.69;5063974;28;20359;-46
2023/01/05 10:48:16;;;;;;;;;;;;;;;11.67;90.03;102139.06;5070004;28;19966;-45
2023/01/05 10:50:43;;;;;;;;;;;;;;;11.66;89.87;102136.44;5065574;28;19920;-43
2023/01/05 10:53:17;;;;;;;;;;;;;;;11.68;89.83;102147.66;5076344;28;19919;-43
2023/01/05 10:55:42;;;;;;;;;;;;;;;11.64;89.37;102144.06;5067672;28;19913;-45
2023/01/05 10:58:19;;;;;;;;;;;;;;;11.64;89.84;102145.75;5067062;28;19962;-45
2023/01/05 11:00:44;;;;;;;;;;;;;;;11.66;89.74;102149.31;5064056;28;20669;-45
2023/01/05 11:03:12;;;;;;;;;;;;;;;11.65;89.79;102150.09;5060729;28;19967;-45
2023/01/05 11:05:42;;;;;;;;;;;;;;;11.64;89.74;102146.63;5069653;28;19917;-45
2023/01/05 11:08:16;;;;;;;;;;;;;;;11.64;89.58;102150.91;5067845;28;19912;-45
2023/01/05 11:10:47;;;;;;;;;;;;;;;11.61;89.51;102148.22;5072122;28;19920;-44
2023/01/05 11:13:15;;;;;;;;;;;;;;;11.61;89.78;102151.69;5071990;28;19912;-43
2023/01/05 11:15:43;;;;;;;;;;;;;;;11.62;89.88;102153.44;5080757;28;19920;-44
2023/01/05 11:18:43;;;;;;;;;;;;;;;11.63;89.82;102152.63;5074579;28;20388;-44
2023/01/05 11:21:15;;;;;;;;;;;;;;;11.63;90.02;102150.03;5026680;28;19982;-45
2023/01/05 11:23:41;;;;;;;;;;;;;;;11.63;89.86;102154.31;5073116;28;19912;-44
2023/01/05 11:26:11;;;;;;;;;;;;;;;11.64;89.65;102143.19;5073376;28;19985;-44
2023/01/05 11:28:36;;;;;;;;;;;;;;;11.64;89.75;102138.91;5080627;28;20284;-45
2023/01/05 11:31:03;;;;;;;;;;;;;;;11.65;89.61;102134.63;5068477;28;19920;-44
2023/01/05 11:33:30;;;;;;;;;;;;;;;11.67;89.82;102131.34;5064384;28;20035;-46
2023/01/05 11:35:56;;;;;;;;;;;;;;;11.72;90.04;102132.41;5064918;28;19956;-44
2023/01/05 11:38:26;;;;;;;;;;;;;;;11.75;90.02;102140.28;5070827;28;20346;-44
2023/01/05 11:40:52;;;;;;;;;;;;;;;11.79;89.52;102141.28;5071548;28;19912;-46
2023/01/05 11:43:19;;;;;;;;;;;;;;;11.80;89.74;102130.16;5065185;28;19979;-45
2023/01/05 11:45:47;;;;;;;;;;;;;;;11.81;89.62;102130.25;5071716;28;19915;-45
2023/01/05 11:48:17;;;;;;;;;;;;;;;11.83;89.58;102135.50;5064343;28;20270;-45
2023/01/05 11:50:45;;;;;;;;;;;;;;;11.85;89.52;102133.88;5076630;28;19912;-43
2023/01/05 11:53:28;;;;;;;;;;;;;;;11.88;89.28;102138.25;5069807;28;19912;-44
2023/01/05 11:56:00;;;;;;;;;;;;;;;11.88;89.05;102130.53;5067057;28;19954;-45
2023/01/05 11:58:29;;;;;;;;;;;;;;;11.88;88.47;102125.38;5067199;28;20448;-46
2023/01/05 12:01:04;;;;;;;;;;;;;;;11.86;88.16;102121.84;5071229;28;19918;-42
2023/01/05 12:03:40;;;;;;;;;;;;;;;11.83;88.37;102125.19;5067338;28;19931;-42
2023/01/05 12:06:18;;;;;;;;;;;;;;;11.83;88.36;102127.78;5073438;28;20807;-46
2023/01/05 12:08:51;;;;;;;;;;;;;;;11.82;88.68;102121.72;5071273;28;20003;-46
2023/01/05 12:11:18;;;;;;;;;;;;;;;11.85;88.77;102122.69;5074101;28;19916;-46
2023/01/05 12:13:46;;;;;;;;;;;;;;;11.86;88.38;102112.41;5072465;28;19912;-46
2023/01/05 12:16:12;;;;;;;;;;;;;;;11.89;88.28;102121.97;5073352;28;19919;-44
2023/01/05 12:18:43;;;;;;;;;;;;;;;11.90;87.99;102121.19;5075124;28;19912;-45
2023/01/05 12:21:25;;;;;;;;;;;;;;;11.90;88.40;102124.63;5076879;28;19912;-46
2023/01/05 12:23:56;;;;;;;;;;;;;;;11.91;88.12;102125.50;5077692;28;19913;-43
2023/01/05 12:26:29;;;;;;;;;;;;;;;11.91;87.84;102133.25;5074953;28;20364;-44
2023/01/05 12:29:12;;;;;;;;;;;;;;;11.90;87.65;102134.94;5069158;28;19912;-44
2023/01/05 12:31:46;;;;;;;;;;;;;;;11.89;87.55;102124.53;5071528;28;19916;-46
2023/01/05 12:34:18;;;;;;;;;;;;;;;11.90;87.74;102128.91;5073398;28;19970;-46
2023/01/05 12:36:43;;;;;;;;;;;;;;;11.91;87.58;102126.38;5066474;28;19920;-43
2023/01/05 12:39:08;;;;;;;;;;;;;;;11.92;87.59;102133.31;5071053;28;20373;-44
2023/01/05 12:41:36;;;;;;;;;;;;;;;11.94;87.80;102125.63;5072546;28;20276;-45
2023/01/05 12:44:08;;;;;;;;;;;;;;;11.97;88.02;102128.34;5067705;28;19919;-43
2023/01/05 12:46:42;;;;;;;;;;;;;;;12.00;87.94;102118.16;5064461;28;19954;-44
2023/01/05 12:49:11;;;;;;;;;;;;;;;12.00;87.74;102116.44;5063980;28;20383;-44
2023/01/05 12:51:45;;;;;;;;;;;;;;;12.03;87.59;102105.41;5065672;28;19919;-45
2023/01/05 12:54:36;;;;;;;;;;;;;;;12.02;87.49;102114.84;5074050;28;20017;-44
2023/01/05 12:57:08;;;;;;;;;;;;;;;12.02;87.20;102108.81;5065267;28;19919;-43
2023/01/05 12:59:49;;;;;;;;;;;;;;;12.04;87.29;102118.34;5068189;28;19920;-42
2023/01/05 13:02:14;;;;;;;;;;;;;;;12.05;87.39;102106.34;5087321;27;19919;-44
2023/01/05 13:04:53;;;;;;;;;;;;;;;12.05;86.78;102103.75;5068449;28;19912;-45
2023/01/05 13:07:20;;;;;;;;;;;;;;;12.05;87.00;102108.91;5075044;28;19925;-43
2023/01/05 13:09:51;;;;;;;;;;;;;;;12.04;87.36;102102.88;5076503;28;19919;-45
2023/01/05 13:12:16;;;;;;;;;;;;;;;12.05;87.45;102104.63;5065406;28;20289;-43
2023/01/05 13:14:53;;;;;;;;;;;;;;;12.07;87.59;102112.44;5074625;28;19923;-45